sensor_id;sensor_type;location;lat;lon;timestamp;pressure;altitude;pressure_sealevel;temperature;humidity
61055;BME280;46939;48.940;8.258;2022-12-07T00:01:45;100553.63;;;14.06;43.94
61055;BME280;46939;48.940;8.258;2022-12-07T00:04:15;100555.88;;;14.02;44.09
61055;BME280;46939;48.940;8.258;2022-12-07T00:06:51;100555.88;;;14.02;43.97
61055;BME280;46939;48.940;8.258;2022-12-07T00:09:20;100549.31;;;14.05;44.21
61055;BME280;46939;48.940;8.258;2022-12-07T00:11:50;100549.53;;;14.03;44.22
61055;BME280;46939;48.940;8.258;2022-12-07T00:14:19;100541.56;;;14.03;43.95
61055;BME280;46939;48.940;8.258;2022-12-07T00:16:49;100547.28;;;14.07;43.98
61055;BME280;46939;48.940;8.258;2022-12-07T00:19:19;100540.13;;;14.07;44.05
61055;BME280;46939;48.940;8.258;2022-12-07T00:21:49;100545.63;;;14.12;43.83
61055;BME280;46939;48.940;8.258;2022-12-07T00:24:18;100547.06;;;14.08;44.21
61055;BME280;46939;48.940;8.258;2022-12-07T00:26:46;100553.84;;;14.04;43.83
61055;BME280;46939;48.940;8.258;2022-12-07T00:29:16;100539.06;;;14.08;44.45
61055;BME280;46939;48.940;8.258;2022-12-07T00:31:45;100553.22;;;14.02;44.19
61055;BME280;46939;48.940;8.258;2022-12-07T00:34:16;100552.63;;;14.00;44.11
61055;BME280;46939;48.940;8.258;2022-12-07T00:36:45;100554.44;;;13.93;44.65
61055;BME280;46939;48.940;8.258;2022-12-07T00:39:17;100546.06;;;13.96;44.09
61055;BME280;46939;48.940;8.258;2022-12-07T00:41:45;100553.81;;;13.91;44.34
61055;BME280;46939;48.940;8.258;2022-12-07T00:44:14;100545.66;;;13.92;44.26
61055;BME280;46939;48.940;8.258;2022-12-07T00:46:42;100539.47;;;13.99;43.94
61055;BME280;46939;48.940;8.258;2022-12-07T00:49:12;100536.00;;;13.98;44.23
61055;BME280;46939;48.940;8.258;2022-12-07T00:51:40;100539.06;;;13.95;44.56
61055;BME280;46939;48.940;8.258;2022-12-07T00:54:08;100537.66;;;13.99;44.35
61055;BME280;46939;48.940;8.258;2022-12-07T00:56:39;100544.81;;;13.99;44.09
61055;BME280;46939;48.940;8.258;2022-12-07T00:59:12;100535.00;;;13.99;43.97
61055;BME280;46939;48.940;8.258;2022-12-07T01:01:41;100544.41;;;14.02;43.86
61055;BME280;46939;48.940;8.258;2022-12-07T01:04:09;100546.47;;;14.00;43.97
61055;BME280;46939;48.940;8.258;2022-12-07T01:06:38;100535.00;;;13.92;44.49
61055;BME280;46939;48.940;8.258;2022-12-07T01:09:06;100545.66;;;13.92;44.58
61055;BME280;46939;48.940;8.258;2022-12-07T01:11:35;100541.53;;;13.90;44.52
61055;BME280;46939;48.940;8.258;2022-12-07T01:14:06;100543.59;;;13.95;44.01
61055;BME280;46939;48.940;8.258;2022-12-07T01:16:34;100535.41;;;13.83;44.29
61055;BME280;46939;48.940;8.258;2022-12-07T01:19:03;100536.44;;;13.88;44.57
61055;BME280;46939;48.940;8.258;2022-12-07T01:21:34;100541.34;;;13.85;44.71
61055;BME280;46939;48.940;8.258;2022-12-07T01:24:04;100543.59;;;13.81;44.88
61055;BME280;46939;48.940;8.258;2022-12-07T01:26:33;100542.56;;;13.82;44.35
61055;BME280;46939;48.940;8.258;2022-12-07T01:29:01;100542.38;;;13.84;44.39
61055;BME280;46939;48.940;8.258;2022-12-07T01:31:33;100549.94;;;13.87;44.37
61055;BME280;46939;48.940;8.258;2022-12-07T01:34:01;100546.03;;;13.83;44.47
61055;BME280;46939;48.940;8.258;2022-12-07T01:36:31;100548.31;;;13.86;44.24
61055;BME280;46939;48.940;8.258;2022-12-07T01:39:04;100552.59;;;13.87;44.50
61055;BME280;46939;48.940;8.258;2022-12-07T01:41:35;100557.31;;;13.85;44.39
61055;BME280;46939;48.940;8.258;2022-12-07T01:44:12;100550.78;;;13.81;44.48
61055;BME280;46939;48.940;8.258;2022-12-07T01:46:47;100558.13;;;13.85;44.52
61055;BME280;46939;48.940;8.258;2022-12-07T01:49:20;100547.88;;;13.82;44.40
61055;BME280;46939;48.940;8.258;2022-12-07T01:51:52;100551.56;;;13.68;44.44
61055;BME280;46939;48.940;8.258;2022-12-07T01:54:22;100549.72;;;13.75;44.40
61055;BME280;46939;48.940;8.258;2022-12-07T01:56:52;100551.59;;;13.81;44.14
61055;BME280;46939;48.940;8.258;2022-12-07T01:59:24;100544.00;;;13.72;44.28
61055;BME280;46939;48.940;8.258;2022-12-07T02:01:56;100543.56;;;13.68;44.46
61055;BME280;46939;48.940;8.258;2022-12-07T02:04:24;100552.38;;;13.55;44.31
61055;BME280;46939;48.940;8.258;2022-12-07T02:06:54;100559.53;;;13.48;45.11
61055;BME280;46939;48.940;8.258;2022-12-07T02:09:22;100551.53;;;13.48;44.79
61055;BME280;46939;48.940;8.258;2022-12-07T02:11:51;100542.13;;;13.46;45.12
61055;BME280;46939;48.940;8.258;2022-12-07T02:14:20;100550.91;;;13.39;45.29
61055;BME280;46939;48.940;8.258;2022-12-07T02:17:02;100540.47;;;13.31;45.54
61055;BME280;46939;48.940;8.258;2022-12-07T02:19:51;100523.59;;;13.17;45.36
61055;BME280;46939;48.940;8.258;2022-12-07T02:22:51;100533.63;;;13.22;45.37
61055;BME280;46939;48.940;8.258;2022-12-07T02:25:33;100528.38;;;13.29;45.77
61055;BME280;46939;48.940;8.258;2022-12-07T02:28:12;100517.72;;;13.29;45.54
61055;BME280;46939;48.940;8.258;2022-12-07T02:30:48;100526.28;;;13.11;46.17
61055;BME280;46939;48.940;8.258;2022-12-07T02:33:24;100538.16;;;13.22;45.88
61055;BME280;46939;48.940;8.258;2022-12-07T02:35:59;100538.97;;;13.15;45.67
61055;BME280;46939;48.940;8.258;2022-12-07T02:38:39;100550.91;;;13.26;45.60
61055;BME280;46939;48.940;8.258;2022-12-07T02:41:15;100552.75;;;13.39;45.45
61055;BME280;46939;48.940;8.258;2022-12-07T02:43:46;100542.72;;;13.41;45.25
61055;BME280;46939;48.940;8.258;2022-12-07T02:46:21;100537.41;;;13.48;45.14
61055;BME280;46939;48.940;8.258;2022-12-07T02:48:52;100528.84;;;13.46;45.14
61055;BME280;46939;48.940;8.258;2022-12-07T02:51:24;100529.63;;;13.39;45.40
61055;BME280;46939;48.940;8.258;2022-12-07T02:53:53;100529.22;;;13.42;45.08
61055;BME280;46939;48.940;8.258;2022-12-07T02:56:32;100529.84;;;13.44;45.34
61055;BME280;46939;48.940;8.258;2022-12-07T02:59:13;100526.34;;;13.44;45.10
61055;BME280;46939;48.940;8.258;2022-12-07T03:01:57;100528.00;;;13.45;44.95
61055;BME280;46939;48.940;8.258;2022-12-07T03:04:42;100525.53;;;13.43;45.36
61055;BME280;46939;48.940;8.258;2022-12-07T03:07:20;100522.66;;;13.45;44.70
61055;BME280;46939;48.940;8.258;2022-12-07T03:09:59;100528.00;;;13.52;44.83
61055;BME280;46939;48.940;8.258;2022-12-07T03:12:33;100524.72;;;13.56;44.85
61055;BME280;46939;48.940;8.258;2022-12-07T03:15:06;100507.13;;;13.49;44.99
61055;BME280;46939;48.940;8.258;2022-12-07T03:17:40;100519.19;;;13.38;45.17
61055;BME280;46939;48.940;8.258;2022-12-07T03:20:13;100517.16;;;13.47;44.83
61055;BME280;46939;48.940;8.258;2022-12-07T03:22:45;100511.63;;;13.55;44.87
61055;BME280;46939;48.940;8.258;2022-12-07T03:25:16;100516.13;;;13.54;44.52
61055;BME280;46939;48.940;8.258;2022-12-07T03:27:49;100509.19;;;13.47;44.96
61055;BME280;46939;48.940;8.258;2022-12-07T03:30:23;100506.72;;;13.58;44.43
61055;BME280;46939;48.940;8.258;2022-12-07T03:32:59;100509.78;;;13.49;44.68
61055;BME280;46939;48.940;8.258;2022-12-07T03:35:33;100510.19;;;13.59;44.56
61055;BME280;46939;48.940;8.258;2022-12-07T03:38:13;100515.50;;;13.52;44.68
61055;BME280;46939;48.940;8.258;2022-12-07T03:40:46;100513.66;;;13.33;44.80
61055;BME280;46939;48.940;8.258;2022-12-07T03:43:18;100509.69;;;13.15;45.28
61055;BME280;46939;48.940;8.258;2022-12-07T03:45:55;100497.19;;;13.09;45.16
61055;BME280;46939;48.940;8.258;2022-12-07T03:48:33;100511.06;;;12.91;45.02
61055;BME280;46939;48.940;8.258;2022-12-07T03:51:11;100519.38;;;12.68;45.92
61055;BME280;46939;48.940;8.258;2022-12-07T03:53:46;100519.63;;;12.87;45.39
61055;BME280;46939;48.940;8.258;2022-12-07T03:56:17;100516.97;;;12.80;45.58
61055;BME280;46939;48.940;8.258;2022-12-07T03:58:46;100516.31;;;12.78;45.75
61055;BME280;46939;48.940;8.258;2022-12-07T04:01:15;100515.13;;;12.87;45.83
61055;BME280;46939;48.940;8.258;2022-12-07T04:03:46;100504.13;;;12.97;45.21
61055;BME280;46939;48.940;8.258;2022-12-07T04:06:14;100503.72;;;13.00;45.27
61055;BME280;46939;48.940;8.258;2022-12-07T04:08:43;100508.00;;;12.88;45.09
61055;BME280;46939;48.940;8.258;2022-12-07T04:11:11;100507.97;;;12.81;45.69
61055;BME280;46939;48.940;8.258;2022-12-07T04:13:39;100505.31;;;12.81;45.60
61055;BME280;46939;48.940;8.258;2022-12-07T04:16:20;100502.44;;;12.76;45.52
61055;BME280;46939;48.940;8.258;2022-12-07T04:18:51;100504.88;;;12.78;46.01
61055;BME280;46939;48.940;8.258;2022-12-07T04:21:20;100506.84;;;12.62;46.03
61055;BME280;46939;48.940;8.258;2022-12-07T04:23:48;100508.56;;;12.77;45.97
61055;BME280;46939;48.940;8.258;2022-12-07T04:26:16;100501.81;;;12.87;45.29
61055;BME280;46939;48.940;8.258;2022-12-07T04:28:45;100498.34;;;12.80;45.45
61055;BME280;46939;48.940;8.258;2022-12-07T04:31:13;100494.28;;;12.91;45.18
61055;BME280;46939;48.940;8.258;2022-12-07T04:33:41;100494.28;;;12.91;45.63
61055;BME280;46939;48.940;8.258;2022-12-07T04:36:12;100491.81;;;12.89;45.45
61055;BME280;46939;48.940;8.258;2022-12-07T04:38:41;100493.88;;;12.94;45.15
61055;BME280;46939;48.940;8.258;2022-12-07T04:41:09;100493.06;;;12.93;45.65
61055;BME280;46939;48.940;8.258;2022-12-07T04:43:38;100496.78;;;12.99;45.16
61055;BME280;46939;48.940;8.258;2022-12-07T04:46:06;100494.72;;;13.01;45.13
61055;BME280;46939;48.940;8.258;2022-12-07T04:48:35;100493.69;;;13.02;45.30
61055;BME280;46939;48.940;8.258;2022-12-07T04:51:04;100492.84;;;12.95;45.11
61055;BME280;46939;48.940;8.258;2022-12-07T04:53:35;100487.78;;;13.00;45.09
61055;BME280;46939;48.940;8.258;2022-12-07T04:56:03;100506.41;;;13.07;45.07
61055;BME280;46939;48.940;8.258;2022-12-07T04:58:32;100498.84;;;13.17;44.57
61055;BME280;46939;48.940;8.258;2022-12-07T05:01:00;100493.75;;;13.15;44.58
61055;BME280;46939;48.940;8.258;2022-12-07T05:03:29;100502.53;;;13.16;44.58
61055;BME280;46939;48.940;8.258;2022-12-07T05:05:57;100504.38;;;13.22;44.98
61055;BME280;46939;48.940;8.258;2022-12-07T05:08:25;100500.50;;;13.11;44.54
61055;BME280;46939;48.940;8.258;2022-12-07T05:10:56;100506.00;;;13.16;45.03
61055;BME280;46939;48.940;8.258;2022-12-07T05:13:25;100507.88;;;13.23;44.33
61055;BME280;46939;48.940;8.258;2022-12-07T05:15:53;100504.22;;;13.24;44.65
61055;BME280;46939;48.940;8.258;2022-12-07T05:18:21;100499.88;;;13.16;44.67
61055;BME280;46939;48.940;8.258;2022-12-07T05:20:50;100498.66;;;13.18;44.55
61055;BME280;46939;48.940;8.258;2022-12-07T05:23:19;100491.06;;;13.22;44.41
61055;BME280;46939;48.940;8.258;2022-12-07T05:25:48;100498.81;;;13.10;44.50
61055;BME280;46939;48.940;8.258;2022-12-07T05:28:19;100494.53;;;13.09;44.90
61055;BME280;46939;48.940;8.258;2022-12-07T05:30:47;100501.28;;;13.05;44.87
61055;BME280;46939;48.940;8.258;2022-12-07T05:33:15;100491.47;;;13.06;44.86
61055;BME280;46939;48.940;8.258;2022-12-07T05:35:44;100492.09;;;13.14;44.47
61055;BME280;46939;48.940;8.258;2022-12-07T05:38:12;100495.16;;;13.11;44.82
61055;BME280;46939;48.940;8.258;2022-12-07T05:40:40;100498.81;;;13.10;44.33
61055;BME280;46939;48.940;8.258;2022-12-07T05:43:10;100485.53;;;13.04;44.60
61055;BME280;46939;48.940;8.258;2022-12-07T05:45:41;100485.13;;;13.07;44.93
61055;BME280;46939;48.940;8.258;2022-12-07T05:48:09;100493.09;;;13.00;44.68
61055;BME280;46939;48.940;8.258;2022-12-07T05:50:38;100498.00;;;13.10;44.98
61055;BME280;46939;48.940;8.258;2022-12-07T05:53:07;100492.91;;;13.08;44.95
61055;BME280;46939;48.940;8.258;2022-12-07T05:55:35;100498.22;;;13.08;44.71
61055;BME280;46939;48.940;8.258;2022-12-07T05:58:04;100496.78;;;13.06;45.03
61055;BME280;46939;48.940;8.258;2022-12-07T06:00:47;100496.19;;;13.04;44.57
61055;BME280;46939;48.940;8.258;2022-12-07T06:03:15;100491.66;;;13.04;44.85
61055;BME280;46939;48.940;8.258;2022-12-07T06:05:44;100494.97;;;13.13;44.41
61055;BME280;46939;48.940;8.258;2022-12-07T06:08:13;100503.75;;;13.07;44.46
61055;BME280;46939;48.940;8.258;2022-12-07T06:10:42;100499.84;;;12.96;44.79
61055;BME280;46939;48.940;8.258;2022-12-07T06:13:10;100498.34;;;12.80;44.86
61055;BME280;46939;48.940;8.258;2022-12-07T06:15:36;100501.00;;;12.87;44.78
61055;BME280;46939;48.940;8.258;2022-12-07T06:18:07;100507.00;;;12.95;44.19
61055;BME280;46939;48.940;8.258;2022-12-07T06:20:35;100509.41;;;12.90;44.22
61055;BME280;46939;48.940;8.258;2022-12-07T06:23:04;100498.16;;;12.95;44.58
61055;BME280;46939;48.940;8.258;2022-12-07T06:25:33;100503.63;;;12.74;44.54
61055;BME280;46939;48.940;8.258;2022-12-07T06:28:01;100503.25;;;12.83;44.41
61055;BME280;46939;48.940;8.258;2022-12-07T06:30:29;100507.34;;;12.86;44.61
61055;BME280;46939;48.940;8.258;2022-12-07T06:32:58;100503.41;;;12.68;45.05
61055;BME280;46939;48.940;8.258;2022-12-07T06:35:29;100503.66;;;12.87;44.58
61055;BME280;46939;48.940;8.258;2022-12-07T06:37:57;100514.34;;;12.93;44.88
61055;BME280;46939;48.940;8.258;2022-12-07T06:40:25;100506.31;;;12.87;44.68
61055;BME280;46939;48.940;8.258;2022-12-07T06:42:54;100515.56;;;12.98;44.41
61055;BME280;46939;48.940;8.258;2022-12-07T06:45:23;100520.47;;;12.94;44.45
61055;BME280;46939;48.940;8.258;2022-12-07T06:47:51;100518.59;;;12.81;44.49
61055;BME280;46939;48.940;8.258;2022-12-07T06:50:20;100518.38;;;12.83;44.37
61055;BME280;46939;48.940;8.258;2022-12-07T06:52:51;100517.53;;;12.69;44.79
61055;BME280;46939;48.940;8.258;2022-12-07T06:55:19;100508.53;;;12.70;44.58
61055;BME280;46939;48.940;8.258;2022-12-07T06:57:48;100514.47;;;12.79;43.88
61055;BME280;46939;48.940;8.258;2022-12-07T07:00:17;100502.75;;;12.60;44.29
61055;BME280;46939;48.940;8.258;2022-12-07T07:02:45;100510.38;;;12.69;44.46
61055;BME280;46939;48.940;8.258;2022-12-07T07:05:14;100516.06;;;12.66;44.26
61055;BME280;46939;48.940;8.258;2022-12-07T07:07:42;100511.59;;;12.74;44.01
61055;BME280;46939;48.940;8.258;2022-12-07T07:10:13;100518.41;;;12.89;43.71
61055;BME280;46939;48.940;8.258;2022-12-07T07:12:42;100514.72;;;12.90;43.41
61055;BME280;46939;48.940;8.258;2022-12-07T07:15:10;100516.72;;;12.75;43.46
61055;BME280;46939;48.940;8.258;2022-12-07T07:17:39;100511.25;;;12.90;43.36
61055;BME280;46939;48.940;8.258;2022-12-07T07:20:09;100515.13;;;12.87;43.33
61055;BME280;46939;48.940;8.258;2022-12-07T07:22:37;100516.38;;;12.98;43.20
61055;BME280;46939;48.940;8.258;2022-12-07T07:25:06;100521.72;;;12.98;43.20
61055;BME280;46939;48.940;8.258;2022-12-07T07:27:37;100518.44;;;12.96;43.09
61055;BME280;46939;48.940;8.258;2022-12-07T07:30:07;100518.38;;;12.76;43.25
61055;BME280;46939;48.940;8.258;2022-12-07T07:32:36;100518.31;;;12.63;43.23
61055;BME280;46939;48.940;8.258;2022-12-07T07:35:06;100518.03;;;12.92;43.25
61055;BME280;46939;48.940;8.258;2022-12-07T07:37:34;100520.72;;;12.99;42.88
61055;BME280;46939;48.940;8.258;2022-12-07T07:40:03;100516.56;;;12.90;42.79
61055;BME280;46939;48.940;8.258;2022-12-07T07:42:32;100519.88;;;12.99;42.75
61055;BME280;46939;48.940;8.258;2022-12-07T07:45:03;100525.84;;;13.07;42.89
61055;BME280;46939;48.940;8.258;2022-12-07T07:47:32;100523.59;;;13.04;42.83
61055;BME280;46939;48.940;8.258;2022-12-07T07:50:00;100525.41;;;12.97;42.99
61055;BME280;46939;48.940;8.258;2022-12-07T07:52:29;100531.13;;;13.01;43.28
61055;BME280;46939;48.940;8.258;2022-12-07T07:54:58;100531.53;;;12.98;43.44
61055;BME280;46939;48.940;8.258;2022-12-07T07:57:27;100527.47;;;13.08;43.14
61055;BME280;46939;48.940;8.258;2022-12-07T07:59:55;100526.25;;;13.04;43.16
61055;BME280;46939;48.940;8.258;2022-12-07T08:02:26;100535.31;;;12.68;43.41
61055;BME280;46939;48.940;8.258;2022-12-07T08:04:56;100526.22;;;12.98;42.85
61055;BME280;46939;48.940;8.258;2022-12-07T08:07:24;100535.31;;;12.75;43.20
61055;BME280;46939;48.940;8.258;2022-12-07T08:09:53;100524.38;;;12.50;43.74
61055;BME280;46939;48.940;8.258;2022-12-07T08:12:21;100534.69;;;12.66;43.32
61055;BME280;46939;48.940;8.258;2022-12-07T08:14:50;100533.16;;;12.92;43.19
61055;BME280;46939;48.940;8.258;2022-12-07T08:17:18;100531.91;;;12.88;43.23
61055;BME280;46939;48.940;8.258;2022-12-07T08:19:49;100543.38;;;12.88;43.11
61055;BME280;46939;48.940;8.258;2022-12-07T08:22:18;100548.09;;;12.93;42.90
61055;BME280;46939;48.940;8.258;2022-12-07T08:24:46;100544.41;;;12.94;42.59
61055;BME280;46939;48.940;8.258;2022-12-07T08:27:14;100548.31;;;12.98;42.76
61055;BME280;46939;48.940;8.258;2022-12-07T08:29:43;100548.91;;;12.93;42.33
61055;BME280;46939;48.940;8.258;2022-12-07T08:32:11;100551.31;;;12.82;42.62
61055;BME280;46939;48.940;8.258;2022-12-07T08:34:39;100541.78;;;12.59;42.79
61055;BME280;46939;48.940;8.258;2022-12-07T08:37:10;100536.59;;;12.86;42.35
61055;BME280;46939;48.940;8.258;2022-12-07T08:39:39;100551.34;;;12.95;42.56
61055;BME280;46939;48.940;8.258;2022-12-07T08:42:07;100549.41;;;13.17;42.27
61055;BME280;46939;48.940;8.258;2022-12-07T08:44:35;100548.78;;;13.22;42.23
61055;BME280;46939;48.940;8.258;2022-12-07T08:47:06;100548.78;;;13.22;42.21
61055;BME280;46939;48.940;8.258;2022-12-07T08:49:38;100550.06;;;13.32;41.67
61055;BME280;46939;48.940;8.258;2022-12-07T08:52:10;100555.22;;;13.40;41.06
61055;BME280;46939;48.940;8.258;2022-12-07T08:54:40;100557.34;;;13.10;41.56
61055;BME280;46939;48.940;8.258;2022-12-07T08:57:09;100560.47;;;13.20;41.54
61055;BME280;46939;48.940;8.258;2022-12-07T08:59:38;100568.00;;;13.17;41.82
61055;BME280;46939;48.940;8.258;2022-12-07T09:02:06;100559.28;;;13.23;41.30
61055;BME280;46939;48.940;8.258;2022-12-07T09:04:35;100554.38;;;13.33;41.78
61055;BME280;46939;48.940;8.258;2022-12-07T09:07:04;100560.47;;;13.20;41.63
61055;BME280;46939;48.940;8.258;2022-12-07T09:09:35;100563.13;;;13.20;41.93
61055;BME280;46939;48.940;8.258;2022-12-07T09:12:04;100548.88;;;13.41;41.52
61055;BME280;46939;48.940;8.258;2022-12-07T09:14:32;100546.38;;;13.33;41.07
61055;BME280;46939;48.940;8.258;2022-12-07T09:17:05;100549.09;;;13.47;41.09
61055;BME280;46939;48.940;8.258;2022-12-07T09:19:34;100552.38;;;13.42;41.45
61055;BME280;46939;48.940;8.258;2022-12-07T09:22:03;100555.00;;;13.35;41.24
61055;BME280;46939;48.940;8.258;2022-12-07T09:24:35;100562.06;;;13.08;41.56
61055;BME280;46939;48.940;8.258;2022-12-07T09:27:03;100555.41;;;13.32;41.20
61055;BME280;46939;48.940;8.258;2022-12-07T09:29:32;100554.97;;;13.29;40.97
61055;BME280;46939;48.940;8.258;2022-12-07T09:32:00;100541.72;;;13.42;40.64
61055;BME280;46939;48.940;8.258;2022-12-07T09:34:30;100550.28;;;13.31;41.06
61055;BME280;46939;48.940;8.258;2022-12-07T09:37:00;100543.03;;;13.11;41.36
61055;BME280;46939;48.940;8.258;2022-12-07T09:39:29;100550.59;;;13.14;41.34
61055;BME280;46939;48.940;8.258;2022-12-07T09:42:04;100557.72;;;13.01;41.01
61055;BME280;46939;48.940;8.258;2022-12-07T09:44:34;100552.13;;;13.30;41.50
61055;BME280;46939;48.940;8.258;2022-12-07T09:47:03;100550.84;;;13.19;40.29
61055;BME280;46939;48.940;8.258;2022-12-07T09:49:32;100543.88;;;13.18;40.64
61055;BME280;46939;48.940;8.258;2022-12-07T09:52:02;100542.31;;;13.37;40.49
61055;BME280;46939;48.940;8.258;2022-12-07T09:54:36;100550.50;;;13.36;40.25
61055;BME280;46939;48.940;8.258;2022-12-07T09:57:11;100547.94;;;13.14;40.36
61055;BME280;46939;48.940;8.258;2022-12-07T09:59:39;100550.91;;;13.33;39.98
61055;BME280;46939;48.940;8.258;2022-12-07T10:02:24;100546.66;;;13.58;40.16
61055;BME280;46939;48.940;8.258;2022-12-07T10:04:53;100544.16;;;13.43;39.68
61055;BME280;46939;48.940;8.258;2022-12-07T10:07:22;100534.56;;;13.42;40.71
61055;BME280;46939;48.940;8.258;2022-12-07T10:09:50;100537.44;;;13.61;39.82
61055;BME280;46939;48.940;8.258;2022-12-07T10:12:21;100532.53;;;13.64;39.49
61055;BME280;46939;48.940;8.258;2022-12-07T10:14:54;100533.75;;;13.42;39.50
61055;BME280;46939;48.940;8.258;2022-12-07T10:17:30;100534.38;;;13.71;39.85
61055;BME280;46939;48.940;8.258;2022-12-07T10:20:14;100529.25;;;13.69;39.60
61055;BME280;46939;48.940;8.258;2022-12-07T10:22:57;100526.78;;;13.67;40.09
61055;BME280;46939;48.940;8.258;2022-12-07T10:25:28;100526.19;;;13.65;39.68
61055;BME280;46939;48.940;8.258;2022-12-07T10:28:03;100533.34;;;13.72;39.69
61055;BME280;46939;48.940;8.258;2022-12-07T10:30:55;100530.09;;;13.76;39.64
61055;BME280;46939;48.940;8.258;2022-12-07T10:33:33;100523.09;;;13.82;39.63
61055;BME280;46939;48.940;8.258;2022-12-07T10:36:17;100520.84;;;13.79;40.37
61055;BME280;46939;48.940;8.258;2022-12-07T10:38:48;100517.75;;;13.95;40.07
61055;BME280;46939;48.940;8.258;2022-12-07T10:41:17;100523.31;;;13.93;39.54
61055;BME280;46939;48.940;8.258;2022-12-07T10:43:53;100515.13;;;13.82;39.24
61055;BME280;46939;48.940;8.258;2022-12-07T10:46:38;100517.75;;;14.08;39.88
61055;BME280;46939;48.940;8.258;2022-12-07T10:52:19;100516.13;;;13.67;40.30
61055;BME280;46939;48.940;8.258;2022-12-07T10:55:01;100513.69;;;13.46;40.38
61055;BME280;46939;48.940;8.258;2022-12-07T10:57:46;100511.59;;;13.28;40.81
61055;BME280;46939;48.940;8.258;2022-12-07T11:00:21;100504.25;;;13.50;40.36
61055;BME280;46939;48.940;8.258;2022-12-07T11:05:57;100502.00;;;13.47;40.81
61055;BME280;46939;48.940;8.258;2022-12-07T11:08:41;100496.91;;;13.65;40.50
61055;BME280;46939;48.940;8.258;2022-12-07T11:11:16;100496.69;;;13.34;40.85
61055;BME280;46939;48.940;8.258;2022-12-07T11:13:51;100481.72;;;13.99;40.38
61055;BME280;46939;48.940;8.258;2022-12-07T11:16:38;100477.25;;;13.47;41.25
61055;BME280;46939;48.940;8.258;2022-12-07T11:19:19;100476.38;;;14.12;40.45
61055;BME280;46939;48.940;8.258;2022-12-07T11:21:56;100471.88;;;14.00;40.22
61055;BME280;46939;48.940;8.258;2022-12-07T11:24:28;100461.84;;;13.95;40.47
61055;BME280;46939;48.940;8.258;2022-12-07T11:27:07;100469.63;;;13.90;40.58
61055;BME280;46939;48.940;8.258;2022-12-07T11:29:53;100464.44;;;14.28;39.84
61055;BME280;46939;48.940;8.258;2022-12-07T11:32:40;100463.44;;;14.16;40.51
61055;BME280;46939;48.940;8.258;2022-12-07T11:35:21;100466.97;;;13.83;40.55
61055;BME280;46939;48.940;8.258;2022-12-07T11:37:57;100462.63;;;14.22;40.54
61055;BME280;46939;48.940;8.258;2022-12-07T11:40:30;100461.19;;;14.13;40.34
61055;BME280;46939;48.940;8.258;2022-12-07T11:43:04;100450.72;;;14.25;40.24
61055;BME280;46939;48.940;8.258;2022-12-07T11:45:34;100452.63;;;13.91;40.72
61055;BME280;46939;48.940;8.258;2022-12-07T11:48:11;100454.50;;;13.77;41.63
61055;BME280;46939;48.940;8.258;2022-12-07T11:50:44;100452.25;;;13.48;41.56
61055;BME280;46939;48.940;8.258;2022-12-07T11:53:17;100450.41;;;13.88;40.71
61055;BME280;46939;48.940;8.258;2022-12-07T11:55:49;100449.69;;;14.26;40.42
61055;BME280;46939;48.940;8.258;2022-12-07T11:58:38;100441.66;;;14.32;40.30
61055;BME280;46939;48.940;8.258;2022-12-07T12:01:15;100449.22;;;14.42;40.20
61055;BME280;46939;48.940;8.258;2022-12-07T12:03:52;100439.00;;;14.39;40.01
61055;BME280;46939;48.940;8.258;2022-12-07T12:06:22;100438.34;;;14.44;40.02
61055;BME280;46939;48.940;8.258;2022-12-07T12:08:54;100436.25;;;13.94;40.63
61055;BME280;46939;48.940;8.258;2022-12-07T12:11:36;100432.16;;;13.91;40.86
61055;BME280;46939;48.940;8.258;2022-12-07T12:14:23;100437.09;;;13.88;40.83
61055;BME280;46939;48.940;8.258;2022-12-07T12:17:29;100439.34;;;13.78;41.03
61055;BME280;46939;48.940;8.258;2022-12-07T12:20:17;100439.22;;;14.31;40.00
61055;BME280;46939;48.940;8.258;2022-12-07T12:22:51;100426.69;;;14.38;40.37
61055;BME280;46939;48.940;8.258;2022-12-07T12:25:23;100430.19;;;14.38;39.89
61055;BME280;46939;48.940;8.258;2022-12-07T12:27:55;100422.13;;;14.45;40.46
61055;BME280;46939;48.940;8.258;2022-12-07T12:30:30;100413.09;;;14.53;40.17
61055;BME280;46939;48.940;8.258;2022-12-07T12:33:05;100418.25;;;14.54;39.86
61055;BME280;46939;48.940;8.258;2022-12-07T12:35:37;100429.72;;;14.55;40.11
61055;BME280;46939;48.940;8.258;2022-12-07T12:38:30;100418.06;;;14.49;40.41
61055;BME280;46939;48.940;8.258;2022-12-07T12:40:59;100413.78;;;14.35;40.30
61055;BME280;46939;48.940;8.258;2022-12-07T12:43:44;100417.03;;;14.37;40.42
61055;BME280;46939;48.940;8.258;2022-12-07T12:49:42;100402.34;;;14.73;40.25
61055;BME280;46939;48.940;8.258;2022-12-07T12:55:29;100410.72;;;14.31;41.23
61055;BME280;46939;48.940;8.258;2022-12-07T12:58:29;100414.75;;;14.47;40.58
61055;BME280;46939;48.940;8.258;2022-12-07T13:03:52;100400.97;;;13.99;41.15
61055;BME280;46939;48.940;8.258;2022-12-07T13:06:34;100393.63;;;13.94;41.52
61055;BME280;46939;48.940;8.258;2022-12-07T13:09:03;100398.22;;;14.25;40.53
61055;BME280;46939;48.940;8.258;2022-12-07T13:11:44;100395.94;;;14.35;40.46
61055;BME280;46939;48.940;8.258;2022-12-07T13:14:38;100394.34;;;14.28;40.42
61055;BME280;46939;48.940;8.258;2022-12-07T13:17:08;100391.25;;;14.31;40.84
61055;BME280;46939;48.940;8.258;2022-12-07T13:19:59;100385.31;;;14.29;41.21
61055;BME280;46939;48.940;8.258;2022-12-07T13:22:42;100382.78;;;14.40;40.03
61055;BME280;46939;48.940;8.258;2022-12-07T13:25:17;100377.38;;;14.15;40.40
61055;BME280;46939;48.940;8.258;2022-12-07T13:27:55;100368.59;;;14.08;40.91
61055;BME280;46939;48.940;8.258;2022-12-07T13:30:24;100373.84;;;14.22;40.85
61055;BME280;46939;48.940;8.258;2022-12-07T13:32:58;100377.13;;;14.30;40.49